Time;durP1;ratioP1;P1;durP2;ratioP2;P2;SDS_P1;SDS_P2;PMS_P1;PMS_P2;Temp;Humidity;BMP_temperature;BMP_pressure;BME280_temperature;BME280_humidity;BME280_pressure;Samples;Min_cycle;Max_cycle;Signal;HPM_P1;HPM_P2
2022/06/07 00:00:08;;;;;;;8.30;4.20;;;;;;;17.05;59.10;101289.09;5080877;28;20179;-70
2022/06/07 00:02:37;;;;;;;7.03;4.93;;;;;;;17.03;59.22;101293.97;5074364;28;20055;-70
2022/06/07 00:05:05;;;;;;;6.78;4.25;;;;;;;17.02;59.15;101281.44;5085355;28;20048;-70
2022/06/07 00:07:33;;;;;;;5.88;4.55;;;;;;;17.02;59.44;101288.78;5080709;28;20045;-71
2022/06/07 00:10:01;;;;;;;6.55;4.53;;;;;;;17.00;59.21;101289.03;5086745;28;20088;-71
2022/06/07 00:12:29;;;;;;;7.22;4.80;;;;;;;17.00;59.36;101289.03;5084893;28;20055;-70
2022/06/07 00:14:57;;;;;;;8.02;5.82;;;;;;;16.98;59.89;101284.94;5084002;28;20397;-69
2022/06/07 00:17:25;;;;;;;7.97;5.55;;;;;;;16.98;59.41;101274.06;5074214;28;20052;-69
2022/06/07 00:19:54;;;;;;;7.45;5.38;;;;;;;16.94;59.43;101273.75;5085737;28;20087;-70
2022/06/07 00:22:22;;;;;;;8.07;5.15;;;;;;;16.96;59.46;101274.31;5077086;28;20068;-70
2022/06/07 00:24:50;;;;;;;9.02;5.53;;;;;;;16.95;59.33;101274.56;5081176;28;20049;-70
2022/06/07 00:27:17;;;;;;;7.75;4.60;;;;;;;16.95;59.46;101271.88;5089296;28;20467;-69
2022/06/07 00:29:47;;;;;;;7.00;4.80;;;;;;;16.94;59.31;101267.50;5083242;28;20067;-70
2022/06/07 00:32:18;;;;;;;7.43;5.97;;;;;;;16.92;59.34;101259.63;5082376;28;20072;-70
2022/06/07 00:34:46;;;;;;;7.30;4.28;;;;;;;16.92;59.39;101265.03;5083922;28;20062;-70
2022/06/07 00:37:15;;;;;;;7.95;5.03;;;;;;;16.91;59.37;101264.22;5085994;28;20044;-70
2022/06/07 00:39:43;;;;;;;8.18;5.38;;;;;;;16.90;59.42;101262.59;5083807;28;20068;-70
2022/06/07 00:42:11;;;;;;;7.40;4.78;;;;;;;16.88;59.31;101256.59;5081854;28;20048;-71
2022/06/07 00:44:41;;;;;;;6.97;4.65;;;;;;;16.88;59.51;101262.00;5085308;28;20072;-70
2022/06/07 00:47:11;;;;;;;7.78;5.22;;;;;;;16.85;59.47;101251.66;5084598;28;20402;-70
2022/06/07 00:49:45;;;;;;;6.97;4.53;;;;;;;16.86;59.47;101247.06;5085227;28;20123;-70
2022/06/07 00:52:15;;;;;;;6.43;4.72;;;;;;;16.86;59.60;101247.06;5080690;28;20421;-70
2022/06/07 00:54:43;;;;;;;5.65;4.40;;;;;;;16.86;59.05;101247.06;5084682;28;20048;-70
2022/06/07 00:57:11;;;;;;;6.95;5.00;;;;;;;16.85;59.23;101251.66;5084913;28;20087;-71
2022/06/07 00:59:39;;;;;;;6.82;4.00;;;;;;;16.85;59.41;101251.66;5078047;28;20669;-70
2022/06/07 01:02:07;;;;;;;6.40;4.00;;;;;;;16.83;59.24;101237.53;5081683;28;20040;-70
2022/06/07 01:04:35;;;;;;;6.93;4.20;;;;;;;16.79;59.27;101235.56;5072411;28;20048;-70
2022/06/07 01:12:35;;;;;;;6.93;4.53;;;;;;;16.79;59.29;101241.81;5074500;28;20084;-68
2022/06/07 01:15:05;;;;;;;4.93;4.22;;;;;;;16.79;59.40;101238.28;5082241;28;20052;-70
2022/06/07 01:17:33;;;;;;;6.85;4.20;;;;;;;16.78;59.37;101225.78;5083789;28;20048;-71
2022/06/07 01:20:01;;;;;;;5.72;4.45;;;;;;;16.77;59.41;101229.56;5081276;28;20446;-70
2022/06/07 01:22:30;;;;;;;7.78;4.47;;;;;;;16.76;59.29;101233.34;5080179;28;20052;-70
2022/06/07 01:24:58;;;;;;;7.50;4.50;;;;;;;16.74;59.44;101230.91;5080272;28;20081;-70
2022/06/07 01:27:25;;;;;;;6.22;3.80;;;;;;;16.74;59.20;101224.66;5077917;28;20493;-70
2022/06/07 01:29:53;;;;;;;7.18;4.72;;;;;;;16.72;59.41;101227.63;5082737;28;20114;-69
2022/06/07 01:32:21;;;;;;;7.80;4.43;;;;;;;16.72;59.21;101222.19;5074424;28;20044;-70
2022/06/07 01:34:48;;;;;;;6.68;4.53;;;;;;;16.64;59.50;101219.06;5074686;28;20064;-70
2022/06/07 01:37:18;;;;;;;6.78;3.70;;;;;;;16.71;59.17;101222.44;5083102;28;20044;-70
2022/06/07 01:42:33;;;;;;;5.32;3.55;;;;;;;16.69;59.24;101217.25;5078629;28;20048;-70
2022/06/07 01:45:01;;;;;;;6.53;3.55;;;;;;;16.69;58.92;101219.16;5082067;28;20152;-70
2022/06/07 01:47:32;;;;;;;7.82;3.97;;;;;;;16.68;59.21;101214.81;5082245;28;20075;-71
2022/06/07 01:50:00;;;;;;;5.30;3.80;;;;;;;16.67;59.01;101213.16;5085083;28;20106;-70
2022/06/07 01:52:31;;;;;;;5.57;3.15;;;;;;;16.67;59.16;101213.16;5076944;28;20048;-70
2022/06/07 01:55:01;;;;;;;11.60;3.97;;;;;;;16.66;58.82;101212.34;5080082;28;20048;-70
2022/06/07 01:57:29;;;;;;;5.90;3.40;;;;;;;16.66;58.91;101206.91;5084026;28;20497;-69
2022/06/07 01:59:58;;;;;;;6.45;3.85;;;;;;;16.64;58.89;101206.31;5083183;28;20072;-70
2022/06/07 02:02:27;;;;;;;4.38;2.75;;;;;;;16.63;58.82;101207.38;5076091;28;20070;-70
2022/06/07 02:04:56;;;;;;;4.13;2.97;;;;;;;16.61;58.97;101206.81;5082520;28;20742;-70
2022/06/07 02:07:25;;;;;;;6.03;2.47;;;;;;;16.63;58.75;101210.09;5080859;28;20108;-70
2022/06/07 02:09:53;;;;;;;6.20;3.05;;;;;;;16.61;58.60;101209.53;5082524;28;20075;-70
2022/06/07 02:12:22;;;;;;;3.75;2.75;;;;;;;16.60;58.70;101205.19;5078056;28;20119;-70
2022/06/07 02:14:49;;;;;;;7.22;2.58;;;;;;;16.58;58.52;101197.28;5079044;28;20048;-70
2022/06/07 02:17:17;;;;;;;7.75;2.60;;;;;;;16.57;58.70;101197.56;5081876;28;20048;-70
2022/06/07 02:19:45;;;;;;;4.57;2.47;;;;;;;16.57;58.15;101195.66;5081527;28;20065;-70
2022/06/07 02:22:13;;;;;;;3.55;2.45;;;;;;;16.57;58.45;101197.56;5082493;28;20123;-70
2022/06/07 02:24:41;;;;;;;8.57;2.67;;;;;;;16.51;58.48;101190.41;5079867;28;20427;-69
2022/06/07 02:27:12;;;;;;;5.03;2.58;;;;;;;16.56;58.43;101195.91;5086100;28;20063;-70
2022/06/07 02:29:44;;;;;;;4.53;2.42;;;;;;;16.55;58.36;101188.84;5081000;28;20052;-69
2022/06/07 02:32:17;;;;;;;3.75;2.50;;;;;;;16.52;58.47;101187.44;5068049;28;20080;-70
2022/06/07 02:34:52;;;;;;;4.07;2.30;;;;;;;16.53;58.35;101193.69;5078710;28;20068;-70
2022/06/07 02:37:21;;;;;;;3.20;2.40;;;;;;;16.53;58.14;101191.00;5082226;28;20055;-70
2022/06/07 02:39:49;;;;;;;6.53;2.28;;;;;;;16.53;58.16;101188.28;5081393;28;20068;-70
2022/06/07 02:42:19;;;;;;;6.00;2.50;;;;;;;16.52;58.17;101183.91;5081430;28;20072;-70
2022/06/07 02:44:48;;;;;;;4.90;2.10;;;;;;;16.50;58.15;101188.78;5095458;28;20072;-70
2022/06/07 02:47:17;;;;;;;7.38;2.42;;;;;;;16.48;58.29;101180.06;5082334;28;20087;-70
2022/06/07 02:49:44;;;;;;;5.78;3.00;;;;;;;16.48;58.22;101189.03;5083444;28;20045;-70
2022/06/07 02:52:12;;;;;;;4.30;2.50;;;;;;;16.47;57.95;101183.84;5073161;28;20048;-70
2022/06/07 02:54:40;;;;;;;5.47;2.35;;;;;;;16.46;58.12;101180.31;5075501;28;20036;-70
2022/06/07 02:57:08;;;;;;;8.30;2.42;;;;;;;16.45;58.25;101183.28;5081830;28;20068;-68
2022/06/07 02:59:35;;;;;;;4.95;2.45;;;;;;;16.44;58.13;101184.38;5077413;28;20396;-67
2022/06/07 03:02:05;;;;;;;4.63;2.50;;;;;;;16.43;58.06;101182.72;5086563;28;20084;-70
2022/06/07 03:04:33;;;;;;;4.13;1.90;;;;;;;16.43;58.03;101177.28;5082241;28;20052;-70
2022/06/07 03:07:02;;;;;;;4.40;2.17;;;;;;;16.42;58.05;101183.78;5080773;28;20182;-70
2022/06/07 03:09:31;;;;;;;7.25;2.70;;;;;;;16.42;58.07;101178.38;5083240;28;20085;-70
2022/06/07 03:11:58;;;;;;;3.60;2.17;;;;;;;16.40;57.95;101184.03;5082834;28;20087;-70
2022/06/07 03:14:26;;;;;;;3.50;2.10;;;;;;;16.39;58.03;101178.88;5080390;28;20048;-70
2022/06/07 03:16:56;;;;;;;6.85;2.30;;;;;;;16.38;58.02;101179.94;5077834;28;20045;-70
2022/06/07 03:19:28;;;;;;;4.70;2.60;;;;;;;16.37;58.07;101183.72;5094037;28;20474;-70
2022/06/07 03:21:56;;;;;;;5.38;2.38;;;;;;;16.35;57.98;101194.00;5074284;28;20057;-70
2022/06/07 03:24:25;;;;;;;6.05;2.10;;;;;;;16.35;57.90;101183.97;5084098;28;20072;-70
2022/06/07 03:26:53;;;;;;;4.25;2.17;;;;;;;16.34;58.08;101190.47;5074487;28;20114;-69
2022/06/07 03:29:21;;;;;;;5.30;2.10;;;;;;;16.33;57.90;101201.59;5082397;28;20064;-70
2022/06/07 03:31:49;;;;;;;4.47;1.90;;;;;;;16.32;57.85;101202.66;5082111;28;20152;-70
2022/06/07 03:34:17;;;;;;;4.80;2.00;;;;;;;16.29;57.85;101201.25;5081382;28;20045;-69
2022/06/07 03:36:46;;;;;;;4.45;2.75;;;;;;;16.30;57.86;101213.75;5078521;28;20059;-70
2022/06/07 03:39:13;;;;;;;5.50;2.40;;;;;;;16.30;57.75;101202.91;5078473;28;20057;-70
2022/06/07 03:41:42;;;;;;;3.60;2.05;;;;;;;16.28;57.98;101214.00;5081107;28;20048;-70
2022/06/07 03:44:10;;;;;;;4.80;1.63;;;;;;;16.27;57.71;101209.66;5070997;28;20771;-70
2022/06/07 03:46:38;;;;;;;5.97;2.22;;;;;;;16.27;57.80;101209.66;5082018;28;20048;-70
2022/06/07 03:49:05;;;;;;;4.95;2.35;;;;;;;16.27;57.93;101206.94;5084331;28;20080;-70
2022/06/07 03:51:33;;;;;;;4.45;2.10;;;;;;;16.27;57.71;101216.97;5070787;28;20041;-70
2022/06/07 03:54:04;;;;;;;5.50;2.05;;;;;;;16.26;57.77;101221.56;5084562;28;20060;-70
2022/06/07 03:56:33;;;;;;;6.70;3.53;;;;;;;16.25;57.76;101217.22;5076187;28;20052;-70
2022/06/07 03:59:00;;;;;;;6.85;2.80;;;;;;;16.25;57.69;101210.97;5085292;28;20053;-70
2022/06/07 04:01:29;;;;;;;3.08;1.90;;;;;;;16.24;57.82;101214.75;5083927;28;20080;-69
2022/06/07 04:04:01;;;;;;;2.58;1.77;;;;;;;16.23;57.73;101219.34;5085598;28;20087;-70
2022/06/07 04:06:32;;;;;;;5.43;1.92;;;;;;;16.23;57.93;101215.81;5087048;28;20046;-70
2022/06/07 04:09:00;;;;;;;4.45;2.00;;;;;;;16.21;57.62;101224.22;5083573;28;20068;-67
2022/06/07 04:11:29;;;;;;;10.07;2.58;;;;;;;16.20;57.82;101221.75;5081996;28;20048;-69
2022/06/07 04:13:59;;;;;;;4.15;2.10;;;;;;;16.20;57.71;101217.16;5084214;28;20056;-71
2022/06/07 04:16:30;;;;;;;4.05;1.75;;;;;;;16.18;57.69;101227.41;5084358;28;20052;-71
2022/06/07 04:18:58;;;;;;;6.28;2.05;;;;;;;16.18;57.90;101226.59;5080339;28;20053;-70
2022/06/07 04:21:26;;;;;;;4.60;1.95;;;;;;;16.18;57.95;101224.72;5084465;28;20107;-70
2022/06/07 04:23:54;;;;;;;4.20;2.35;;;;;;;16.16;57.84;101226.84;5081643;28;20199;-70
2022/06/07 04:26:26;;;;;;;4.05;2.10;;;;;;;16.15;57.71;101222.50;5091074;28;20072;-70
2022/06/07 04:28:56;;;;;;;6.35;2.20;;;;;;;16.15;57.88;101217.06;5083765;28;20245;-70
2022/06/07 04:31:26;;;;;;;2.67;1.40;;;;;;;16.15;57.98;101224.38;5084800;28;20044;-70
2022/06/07 04:33:56;;;;;;;6.68;1.92;;;;;;;16.15;57.94;101218.97;5078138;28;20040;-70
2022/06/07 04:36:25;;;;;;;3.17;2.10;;;;;;;16.13;57.65;101221.94;5081959;28;20045;-70
2022/06/07 04:38:55;;;;;;;5.82;1.98;;;;;;;16.13;57.85;101223.81;5084178;28;20079;-69
2022/06/07 04:41:24;;;;;;;6.25;2.03;;;;;;;16.14;57.97;101228.16;5083095;28;20052;-69
2022/06/07 04:43:53;;;;;;;3.63;1.98;;;;;;;16.13;57.96;101230.06;5079354;28;20059;-69
2022/06/07 04:46:23;;;;;;;3.85;1.92;;;;;;;16.11;57.66;101234.91;5078192;28;20060;-66
2022/06/07 04:48:52;;;;;;;5.43;2.28;;;;;;;16.10;57.95;101227.03;5080691;28;20048;-69
2022/06/07 04:51:24;;;;;;;4.47;1.92;;;;;;;16.09;57.98;101231.63;5082125;28;20120;-70
2022/06/07 04:53:52;;;;;;;8.10;2.00;;;;;;;15.98;57.97;101210.84;5089444;28;20068;-70
2022/06/07 04:56:23;;;;;;;6.50;2.25;;;;;;;16.07;58.07;101232.94;5072799;28;20066;-72
2022/06/07 04:58:51;;;;;;;5.28;1.83;;;;;;;16.05;57.93;101224.25;5082601;28;20076;-70
2022/06/07 05:01:21;;;;;;;5.45;1.80;;;;;;;16.06;57.78;101229.41;5084376;28;20105;-74
2022/06/07 05:03:52;;;;;;;4.72;2.13;;;;;;;16.06;57.84;101232.13;5080469;28;20128;-68
2022/06/07 05:06:22;;;;;;;7.28;2.30;;;;;;;16.07;57.92;101232.94;5085065;28;20079;-69
2022/06/07 05:08:51;;;;;;;7.55;2.13;;;;;;;16.07;57.88;101232.94;5072210;28;20055;-72
2022/06/07 05:11:19;;;;;;;6.05;1.92;;;;;;;16.05;58.00;101235.91;5084418;28;20094;-72
2022/06/07 05:13:47;;;;;;;3.25;1.88;;;;;;;16.05;58.06;101237.78;5083514;28;20071;-72
2022/06/07 05:16:15;;;;;;;4.43;1.88;;;;;;;16.03;58.00;101232.63;5081693;28;20056;-71
2022/06/07 05:18:43;;;;;;;5.90;2.17;;;;;;;16.03;58.13;101235.34;5079022;28;20059;-70
2022/06/07 05:21:13;;;;;;;7.25;2.53;;;;;;;16.01;58.04;101237.47;5079058;28;20055;-70
2022/06/07 05:23:41;;;;;;;4.35;1.60;;;;;;;16.00;58.11;101238.53;5076150;28;20087;-70
2022/06/07 05:26:14;;;;;;;4.65;2.47;;;;;;;16.02;58.04;101241.00;5085121;28;20044;-71
2022/06/07 05:28:43;;;;;;;4.88;2.10;;;;;;;15.92;58.42;101222.69;5083919;28;20489;-71
2022/06/07 05:31:11;;;;;;;7.70;2.80;;;;;;;15.99;58.12;101242.31;5076729;28;20045;-69
2022/06/07 05:33:39;;;;;;;5.22;2.35;;;;;;;16.00;58.08;101251.28;5083538;28;20071;-68
2022/06/07 05:36:08;;;;;;;8.13;2.45;;;;;;;16.00;58.26;101254.00;5079435;28;20045;-71
2022/06/07 05:38:42;;;;;;;4.30;2.28;;;;;;;16.00;58.15;101251.28;5081249;28;20478;-72
2022/06/07 05:41:14;;;;;;;5.28;2.20;;;;;;;16.00;58.17;101251.28;5072805;28;20084;-71
2022/06/07 05:43:42;;;;;;;5.93;2.65;;;;;;;15.97;58.10;101249.06;5086796;28;20394;-70
2022/06/07 05:46:11;;;;;;;5.35;2.10;;;;;;;15.99;58.42;101249.63;5079980;28;20462;-71
2022/06/07 05:48:38;;;;;;;9.15;3.10;;;;;;;15.94;58.74;101253.91;5080184;28;20055;-66
2022/06/07 05:51:06;;;;;;;12.68;3.53;;;;;;;15.89;59.16;101258.44;5075243;28;20087;-70
2022/06/07 05:53:34;;;;;;;12.00;3.38;;;;;;;15.85;60.39;101254.56;5071980;28;20064;-68
2022/06/07 05:56:07;;;;;;;8.43;3.55;;;;;;;15.86;60.15;101259.75;5086370;28;20059;-67
2022/06/07 05:58:35;;;;;;;12.70;2.97;;;;;;;15.90;59.81;101255.47;4720055;28;10000448;-68
2022/06/07 06:01:03;;;;;;;9.35;3.00;;;;;;;15.92;59.70;101255.22;5077141;28;20040;-65
2022/06/07 06:03:31;;;;;;;10.90;3.17;;;;;;;15.92;59.58;101249.81;5080920;28;20052;-68
2022/06/07 06:05:59;;;;;;;11.35;2.75;;;;;;;15.93;59.43;101256.88;5073747;28;20110;-68
2022/06/07 06:11:15;;;;;;;10.35;2.80;;;;;;;15.93;59.62;101243.31;5081412;28;20067;-69
2022/06/07 06:13:43;;;;;;;6.80;2.85;;;;;;;15.95;59.64;101254.72;5082140;28;20072;-69
2022/06/07 06:16:18;;;;;;;5.75;2.92;;;;;;;15.95;59.14;101250.13;5075943;28;20053;-69
2022/06/07 06:18:46;;;;;;;9.20;2.50;;;;;;;15.95;59.28;101244.72;5066362;28;20053;-69
2022/06/07 06:21:14;;;;;;;4.53;2.30;;;;;;;15.96;59.24;101248.25;5080635;28;20044;-69
2022/06/07 06:23:43;;;;;;;5.90;2.67;;;;;;;15.94;59.42;101242.25;5084204;28;20057;-69
2022/06/07 06:26:15;;;;;;;9.57;2.90;;;;;;;15.97;59.49;101243.63;5082467;28;20063;-69
2022/06/07 06:28:43;;;;;;;4.95;2.55;;;;;;;15.96;59.64;101248.25;5072034;28;20052;-69
2022/06/07 06:31:12;;;;;;;6.28;2.95;;;;;;;15.97;59.56;101246.34;5080698;28;20052;-69
2022/06/07 06:33:44;;;;;;;5.18;2.55;;;;;;;15.95;59.54;101242.00;5084740;28;20048;-69
2022/06/07 06:36:16;;;;;;;4.95;2.13;;;;;;;15.97;59.51;101240.94;5077296;28;20059;-68
2022/06/07 06:38:45;;;;;;;8.30;3.83;;;;;;;15.97;59.48;101252.59;5084101;28;20134;-69
2022/06/07 06:41:19;;;;;;;7.30;3.85;;;;;;;15.98;59.69;101253.41;5082896;28;20091;-69
2022/06/07 06:43:47;;;;;;;7.55;2.97;;;;;;;16.00;59.59;101251.28;5082310;28;20060;-69
2022/06/07 06:46:19;;;;;;;6.60;3.03;;;;;;;16.00;59.79;101252.09;5078900;28;20051;-69
2022/06/07 06:48:47;;;;;;;7.00;2.60;;;;;;;16.02;60.01;101259.97;5080459;28;20062;-69
2022/06/07 06:51:17;;;;;;;6.22;3.20;;;;;;;16.05;60.17;101254.06;5075658;28;20041;-70
2022/06/07 06:53:46;;;;;;;10.65;3.10;;;;;;;16.07;60.24;101260.06;5086809;28;20048;-68
2022/06/07 06:56:20;;;;;;;9.10;3.25;;;;;;;16.09;59.88;101256.03;5081379;28;20051;-71
2022/06/07 06:58:48;;;;;;;7.35;2.85;;;;;;;16.25;60.37;101265.22;5075064;28;20056;-70
2022/06/07 07:01:18;;;;;;;6.90;2.97;;;;;;;16.32;59.59;101260.44;5075954;28;20080;-72
2022/06/07 07:03:46;;;;;;;7.35;2.60;;;;;;;16.38;59.92;101264.84;5075741;28;20060;-69
2022/06/07 07:06:16;;;;;;;5.05;2.70;;;;;;;16.34;59.76;101255.59;5079809;28;20040;-70
2022/06/07 07:08:46;;;;;;;7.18;2.72;;;;;;;16.28;59.94;101262.81;5080867;28;20086;-69
2022/06/07 07:11:18;;;;;;;6.85;2.67;;;;;;;16.34;60.06;101262.91;5087271;28;20052;-69
2022/06/07 07:13:47;;;;;;;5.20;2.67;;;;;;;16.39;59.74;101266.50;5081352;28;20079;-70
2022/06/07 07:16:19;;;;;;;5.10;2.58;;;;;;;16.36;59.87;101263.47;5077674;28;20108;-70
2022/06/07 07:18:48;;;;;;;7.80;2.80;;;;;;;16.34;59.91;101262.91;5082821;28;20063;-70
2022/06/07 07:21:18;;;;;;;7.93;3.67;;;;;;;16.31;60.23;101261.50;5078118;28;20132;-69
2022/06/07 07:23:46;;;;;;;7.90;3.35;;;;;;;16.30;60.45;101268.00;5078114;28;20497;-70
2022/06/07 07:26:18;;;;;;;9.98;3.00;;;;;;;16.42;60.85;101267.88;5075628;28;20526;-70
2022/06/07 07:28:48;;;;;;;9.60;2.70;;;;;;;16.42;60.81;101257.03;5075817;28;20056;-69
2022/06/07 07:31:22;;;;;;;8.93;2.60;;;;;;;16.50;60.48;101257.44;5075047;28;20108;-70
2022/06/07 07:33:50;;;;;;;6.03;2.78;;;;;;;16.65;60.76;101248.69;5079172;28;20112;-70
2022/06/07 07:36:19;;;;;;;5.95;2.58;;;;;;;16.56;60.30;101247.47;5080190;28;20467;-70
2022/06/07 07:38:47;;;;;;;6.05;3.40;;;;;;;16.51;60.32;101252.81;5080887;28;20049;-70
2022/06/07 07:41:19;;;;;;;5.50;2.72;;;;;;;16.60;60.17;101249.44;5082533;28;20095;-70
2022/06/07 07:43:48;;;;;;;5.50;2.95;;;;;;;16.55;60.90;101253.97;5073768;28;20091;-70
2022/06/07 07:46:18;;;;;;;7.88;3.20;;;;;;;16.52;60.36;101249.84;5079829;28;20046;-70
2022/06/07 07:48:46;;;;;;;4.78;2.78;;;;;;;16.56;61.00;101242.84;5080986;28;20059;-70
2022/06/07 07:51:18;;;;;;;4.93;2.72;;;;;;;16.59;60.86;101242.34;5080097;28;20280;-68
2022/06/07 07:53:50;;;;;;;8.80;2.72;;;;;;;16.59;60.49;101244.25;5079479;28;20059;-69
2022/06/07 07:56:20;;;;;;;5.57;2.58;;;;;;;16.72;60.97;101248.50;5085391;28;20055;-70
2022/06/07 07:58:48;;;;;;;7.32;2.88;;;;;;;16.68;60.81;101244.66;5074627;28;20314;-69
2022/06/07 08:01:18;;;;;;;7.75;2.83;;;;;;;16.66;61.02;101247.63;5078409;28;20099;-70
2022/06/07 08:03:45;;;;;;;6.80;3.03;;;;;;;16.63;61.11;101245.38;5081688;28;20131;-70
2022/06/07 08:06:17;;;;;;;7.25;3.13;;;;;;;16.63;61.14;101250.00;5077489;28;20041;-69
2022/06/07 08:08:46;;;;;;;6.25;2.65;;;;;;;16.68;61.62;101244.66;5077755;28;20056;-69
2022/06/07 08:11:15;;;;;;;6.47;2.75;;;;;;;16.62;61.10;101235.59;5078921;28;20363;-70
2022/06/07 08:13:44;;;;;;;3.83;2.42;;;;;;;16.67;61.09;101240.31;5082780;28;20076;-71
2022/06/07 08:16:14;;;;;;;5.85;2.70;;;;;;;16.67;61.31;101238.41;5072417;28;20114;-70
2022/06/07 08:18:43;;;;;;;3.53;2.17;;;;;;;16.67;61.29;101240.31;5074143;28;20155;-70
2022/06/07 08:21:14;;;;;;;4.28;2.35;;;;;;;16.68;61.49;101242.78;5073592;28;20072;-69
2022/06/07 08:23:42;;;;;;;4.85;2.53;;;;;;;16.68;61.32;101240.06;5076686;28;20044;-69
2022/06/07 08:26:10;;;;;;;6.93;2.50;;;;;;;16.72;61.54;101238.47;5081859;28;20068;-69
2022/06/07 08:28:40;;;;;;;4.95;2.67;;;;;;;16.75;61.52;101245.28;5081530;28;20588;-69
2022/06/07 08:31:12;;;;;;;7.35;2.58;;;;;;;16.77;61.74;101233.09;5075475;28;20132;-69
2022/06/07 08:39:13;;;;;;;5.30;2.05;;;;;;;16.82;61.37;101243.19;5081207;28;20072;-69
2022/06/07 08:41:54;;;;;;;9.07;2.20;;;;;;;16.89;62.23;101241.94;5076084;28;20059;-69
2022/06/07 08:44:26;;;;;;;8.07;2.33;;;;;;;16.92;62.14;101227.03;5077246;28;20143;-69
2022/06/07 08:47:00;;;;;;;7.13;2.22;;;;;;;16.92;61.70;101233.28;5075989;28;20044;-70
2022/06/07 08:49:28;;;;;;;4.40;2.08;;;;;;;16.99;61.54;101232.25;5078627;28;20064;-69
2022/06/07 08:52:03;;;;;;;4.68;2.33;;;;;;;17.05;61.86;101242.94;5076367;28;20580;-69
2022/06/07 08:54:35;;;;;;;5.53;2.42;;;;;;;17.05;61.67;101233.97;5080646;28;20051;-68
2022/06/07 08:57:16;;;;;;;6.18;2.00;;;;;;;17.06;61.59;101241.84;5079372;28;20049;-69
2022/06/07 08:59:46;;;;;;;4.43;2.05;;;;;;;17.19;61.94;101246.06;5079353;28;20072;-69
2022/06/07 09:02:36;;;;;;;4.90;2.00;;;;;;;17.20;61.84;101243.09;5079499;28;20052;-69
2022/06/07 09:05:04;;;;;;;3.55;1.77;;;;;;;17.17;61.62;101248.22;5059132;28;20084;-69
2022/06/07 09:07:32;;;;;;;4.93;2.30;;;;;;;17.18;61.64;101241.69;5079975;28;20075;-69
2022/06/07 09:13:05;;;;;;;4.70;2.35;;;;;;;17.20;61.81;101247.69;5073613;28;20471;-69
2022/06/07 09:15:35;;;;;;;3.92;2.00;;;;;;;17.22;62.05;101240.13;5080624;28;20079;-70
2022/06/07 09:18:07;;;;;;;3.85;1.90;;;;;;;17.24;61.82;101236.06;5076180;28;20048;-68
2022/06/07 09:20:39;;;;;;;6.22;2.55;;;;;;;17.29;61.87;101227.16;5077567;28;20513;-69
2022/06/07 09:23:16;;;;;;;2.65;1.52;;;;;;;17.28;61.87;101233.66;5070613;28;20052;-69
2022/06/07 09:25:48;;;;;;;4.75;2.10;;;;;;;17.26;61.71;101230.38;5078947;28;20403;-68
2022/06/07 09:28:20;;;;;;;2.13;1.35;;;;;;;17.34;61.79;101237.22;5080460;28;20044;-68
2022/06/07 09:30:56;;;;;;;5.30;1.95;;;;;;;17.34;61.72;101229.06;5078845;28;20488;-68
2022/06/07 09:33:27;;;;;;;6.38;1.92;;;;;;;17.38;61.86;101236.44;5071959;28;20507;-68
2022/06/07 09:35:58;;;;;;;4.93;1.88;;;;;;;17.44;61.77;101234.59;5077267;28;20618;-68
2022/06/07 09:38:32;;;;;;;5.32;1.98;;;;;;;17.45;61.46;101237.06;5080691;28;20053;-68
2022/06/07 09:41:36;;;;;;;6.90;1.98;;;;;;;17.44;61.36;101227.25;5077011;28;20048;-69
2022/06/07 09:44:02;;;;;;;3.03;1.90;;;;;;;17.42;61.18;101229.41;5078983;28;20076;-70
2022/06/07 09:46:30;;;;;;;4.68;2.30;;;;;;;17.43;61.38;101228.34;5078515;28;20072;-69
2022/06/07 09:49:00;;;;;;;4.25;1.90;;;;;;;17.46;61.66;101233.25;5080510;28;20057;-70
2022/06/07 09:51:38;;;;;;;6.63;1.80;;;;;;;17.50;61.65;101237.09;5075117;28;20060;-70
2022/06/07 09:54:16;;;;;;;3.47;1.80;;;;;;;17.52;61.58;101224.06;5067312;28;20059;-69
2022/06/07 09:56:55;;;;;;;5.30;1.85;;;;;;;17.64;61.55;101225.78;5079258;28;20040;-69
2022/06/07 09:59:43;;;;;;;5.30;1.85;;;;;;;17.67;61.22;101220.69;5079191;28;20076;-68
2022/06/07 10:02:40;;;;;;;4.45;1.60;;;;;;;17.65;61.40;101219.28;5072054;28;20091;-69
2022/06/07 10:05:22;;;;;;;5.15;1.90;;;;;;;17.68;61.43;101225.06;5071457;28;20072;-68
2022/06/07 10:07:59;;;;;;;2.88;1.60;;;;;;;17.69;61.26;101228.59;5072240;28;20068;-68
2022/06/07 10:10:34;;;;;;;5.20;1.83;;;;;;;17.78;61.00;101213.44;5072414;28;20550;-69
2022/06/07 10:13:14;;;;;;;4.22;1.38;;;;;;;17.79;61.26;101215.06;5080165;28;20049;-69
2022/06/07 10:15:50;;;;;;;5.63;1.60;;;;;;;17.96;60.46;101218.47;5077147;28;20055;-69
2022/06/07 10:18:28;;;;;;;6.07;1.98;;;;;;;17.91;60.85;101223.84;5078451;28;20052;-69
2022/06/07 10:21:21;;;;;;;4.97;1.33;;;;;;;17.91;60.73;101217.59;5074276;28;20406;-68
2022/06/07 10:24:12;;;;;;;3.25;1.40;;;;;;;17.89;60.14;101217.88;5077454;28;20055;-67
2022/06/07 10:26:53;;;;;;;2.80;1.60;;;;;;;17.94;60.65;101222.53;5073869;28;20355;-67
2022/06/07 10:29:40;;;;;;;3.28;1.42;;;;;;;17.92;60.62;101213.81;5068934;28;20075;-71
2022/06/07 10:32:22;;;;;;;2.97;1.70;;;;;;;17.95;60.64;101199.69;5070695;28;20076;-69
2022/06/07 10:34:56;;;;;;;3.42;1.40;;;;;;;17.97;60.76;101214.66;5078544;28;20071;-69
2022/06/07 10:38:01;;;;;;;3.95;1.50;;;;;;;17.95;60.45;101205.13;5081158;28;20046;-69
2022/06/07 10:40:36;;;;;;;2.47;1.20;;;;;;;17.94;60.20;101217.91;5078218;28;20083;-68
2022/06/07 10:43:11;;;;;;;2.35;1.13;;;;;;;18.05;60.00;101207.91;5078286;28;20052;-69
2022/06/07 10:45:40;;;;;;;3.63;1.27;;;;;;;18.02;60.10;101211.97;5078469;28;20094;-69
2022/06/07 10:48:11;;;;;;;2.13;1.27;;;;;;;18.12;59.94;101211.22;5078237;28;20072;-68
2022/06/07 10:50:44;;;;;;;4.53;1.42;;;;;;;18.19;59.96;101209.91;5079505;28;20920;-69
2022/06/07 10:53:19;;;;;;;6.00;1.60;;;;;;;18.17;59.72;101211.25;5073380;28;20053;-69
2022/06/07 10:55:51;;;;;;;3.10;1.20;;;;;;;18.29;59.52;101214.56;5080589;28;20048;-69
2022/06/07 10:58:32;;;;;;;5.70;1.83;;;;;;;18.24;59.87;101206.38;5082266;28;20049;-68
2022/06/07 11:01:07;;;;;;;6.55;1.35;;;;;;;18.21;59.17;101212.34;5076942;28;20076;-69
2022/06/07 11:03:50;;;;;;;4.07;1.17;;;;;;;18.21;59.32;101209.63;5080249;28;20059;-69
2022/06/07 11:09:20;;;;;;;5.68;1.60;;;;;;;18.26;59.56;101195.25;5078754;28;20467;-67
2022/06/07 11:11:59;;;;;;;2.53;1.10;;;;;;;18.29;59.65;101203.69;5071283;28;20059;-68
2022/06/07 11:14:46;;;;;;;3.15;1.05;;;;;;;18.35;59.20;101208.06;5084872;28;20054;-68
2022/06/07 11:17:25;;;;;;;3.08;1.27;;;;;;;18.45;59.36;101199.16;5081561;28;20063;-69
2022/06/07 11:19:54;;;;;;;2.92;1.67;;;;;;;18.47;59.17;101205.97;5085520;28;20092;-69
2022/06/07 11:22:30;;;;;;;3.22;1.10;;;;;;;18.50;59.44;101212.78;5080584;28;20040;-69
2022/06/07 11:25:03;;;;;;;1.35;0.90;;;;;;;18.47;58.69;101210.59;5076918;28;20156;-69
2022/06/07 11:27:31;;;;;;;2.30;0.90;;;;;;;18.46;58.81;101209.75;5083787;28;20048;-69
2022/06/07 11:30:22;;;;;;;2.63;1.02;;;;;;;18.42;59.21;101200.50;5073837;28;20084;-69
2022/06/07 11:32:55;;;;;;;1.30;0.77;;;;;;;18.49;59.07;101200.25;5071899;28;20537;-69
2022/06/07 11:35:43;;;;;;;2.20;1.02;;;;;;;18.51;59.30;101206.25;5082524;28;20106;-69
2022/06/07 11:38:26;;;;;;;2.63;1.45;;;;;;;18.49;58.93;101208.41;5080682;28;20044;-68
2022/06/07 11:41:36;;;;;;;2.28;0.95;;;;;;;18.50;59.10;101208.16;5069610;28;20059;-68
2022/06/07 11:43:51;;;;;;;2.80;1.10;;;;;;;18.56;58.93;101203.53;5074901;28;20048;-68
2022/06/07 11:46:24;;;;;;;1.95;0.95;;;;;;;18.60;58.89;101207.38;5079326;28;20135;-67
2022/06/07 11:49:48;;;;;;;2.20;1.00;;;;;;;18.62;59.08;101202.50;5072721;28;20049;-66
2022/06/07 11:52:22;;;;;;;;;;;;;;;18.64;58.98;101200.34;5064977;28;20085;-66
2022/06/07 11:54:54;;;;;;;3.25;0.90;;;;;;;18.67;58.91;101205.25;5082931;28;19935;-68
2022/06/07 11:58:00;;;;;;;5.25;0.80;;;;;;;18.67;58.95;101194.38;5076292;28;20455;-68
2022/06/07 12:00:46;;;;;;;2.25;1.17;;;;;;;18.68;59.20;101198.72;5074967;28;20048;-69
2022/06/07 12:03:41;;;;;;;3.10;1.00;;;;;;;18.95;57.90;101190.34;5067387;28;20049;-69
2022/06/07 12:06:21;;;;;;;4.40;1.08;;;;;;;18.89;58.45;101196.88;5072953;28;20048;-69